createdAt,value
2022-08-19T00:00:11.721Z,5.00
2022-08-19T00:02:39.135Z,5.13
2022-08-19T00:05:20.019Z,4.60
2022-08-19T00:07:47.804Z,4.80
2022-08-19T00:10:16.006Z,4.50
2022-08-19T00:12:46.852Z,4.53
2022-08-19T00:15:17.101Z,5.03
2022-08-19T00:17:45.811Z,4.37
2022-08-19T00:20:18.532Z,4.07
2022-08-19T00:22:48.183Z,4.20
2022-08-19T00:25:17.106Z,4.07
2022-08-19T00:27:45.327Z,4.80
2022-08-19T00:30:13.121Z,4.77
2022-08-19T00:32:40.630Z,5.20
2022-08-19T00:35:08.762Z,5.30
2022-08-19T00:37:44.037Z,5.10
2022-08-19T00:40:12.989Z,4.40
2022-08-19T00:42:40.646Z,4.60
2022-08-19T00:45:15.790Z,4.30
2022-08-19T00:47:43.615Z,4.83
2022-08-19T00:50:13.425Z,4.20
2022-08-19T00:52:49.214Z,5.30
2022-08-19T00:55:25.516Z,5.07
2022-08-19T00:57:57.546Z,4.43
2022-08-19T01:00:28.094Z,4.50
2022-08-19T01:02:55.861Z,5.00
2022-08-19T01:05:28.479Z,5.30
2022-08-19T01:07:59.265Z,4.40
2022-08-19T01:10:36.101Z,4.90
2022-08-19T01:13:05.508Z,4.40
2022-08-19T01:15:44.006Z,5.07
2022-08-19T01:18:15.153Z,5.07
2022-08-19T01:20:43.724Z,4.23
2022-08-19T01:23:11.789Z,5.60
2022-08-19T01:25:54.633Z,4.93
2022-08-19T01:28:39.949Z,4.93
2022-08-19T01:31:12.418Z,5.07
2022-08-19T01:33:57.609Z,5.33
2022-08-19T01:36:35.767Z,5.50
2022-08-19T01:39:08.677Z,4.90
2022-08-19T01:42:04.087Z,5.27
2022-08-19T01:44:31.674Z,4.73
2022-08-19T01:46:59.129Z,5.17
2022-08-19T01:49:27.536Z,5.17
2022-08-19T01:51:55.197Z,5.50
2022-08-19T01:54:27.571Z,5.80
2022-08-19T01:57:04.380Z,5.23
2022-08-19T01:59:33.531Z,5.43
2022-08-19T02:02:00.884Z,6.03
2022-08-19T02:04:28.334Z,5.47
2022-08-19T02:06:55.669Z,6.03
2022-08-19T02:09:23.101Z,5.83
2022-08-19T02:11:50.576Z,6.70
2022-08-19T02:14:18.017Z,6.13
2022-08-19T02:16:45.949Z,5.70
2022-08-19T02:19:13.875Z,5.47
2022-08-19T02:21:41.281Z,6.33
2022-08-19T02:24:08.617Z,6.50
2022-08-19T02:26:36.483Z,7.40
2022-08-19T02:29:03.855Z,6.43
2022-08-19T02:31:31.181Z,6.30
2022-08-19T02:33:59.303Z,6.40
2022-08-19T02:36:27.986Z,6.60
2022-08-19T02:38:55.849Z,5.73
2022-08-19T02:41:28.913Z,6.70
2022-08-19T02:44:30.636Z,6.80
2022-08-19T02:46:48.264Z,7.07
2022-08-19T02:49:17.378Z,6.30
2022-08-19T02:51:46.952Z,6.80
2022-08-19T02:54:15.726Z,6.40
2022-08-19T02:56:44.487Z,7.07
2022-08-19T02:59:13.356Z,5.67
2022-08-19T03:01:43.080Z,6.40
2022-08-19T03:04:15.376Z,6.17
2022-08-19T03:06:46.234Z,6.27
2022-08-19T03:09:14.001Z,6.17
2022-08-19T03:11:41.506Z,5.63
2022-08-19T03:14:10.749Z,6.70
2022-08-19T03:16:47.291Z,5.67
2022-08-19T03:19:17.443Z,6.30
2022-08-19T03:21:45.952Z,6.20
2022-08-19T03:24:14.898Z,6.17
2022-08-19T03:26:45.862Z,6.23
2022-08-19T03:29:13.651Z,6.17
2022-08-19T03:31:52.157Z,6.13
2022-08-19T03:34:24.329Z,6.97
2022-08-19T03:36:51.870Z,5.80
2022-08-19T03:39:19.227Z,7.33
2022-08-19T03:41:49.943Z,8.33
2022-08-19T03:44:38.746Z,6.80
2022-08-19T03:47:07.263Z,7.70
2022-08-19T03:49:36.150Z,7.27
2022-08-19T03:52:08.120Z,6.43
2022-08-19T03:54:36.119Z,6.77
2022-08-19T03:57:04.051Z,7.20
2022-08-19T03:59:34.433Z,7.77
2022-08-19T04:02:04.083Z,7.37
2022-08-19T04:04:32.013Z,7.30
2022-08-19T04:07:00.173Z,6.93
2022-08-19T04:09:28.017Z,7.77
2022-08-19T04:11:56.776Z,8.40
2022-08-19T04:14:27.713Z,7.80
2022-08-19T04:16:55.137Z,7.60
2022-08-19T04:19:24.248Z,8.30
2022-08-19T04:21:54.768Z,8.07
2022-08-19T04:24:23.546Z,8.57
2022-08-19T04:26:51.662Z,7.70
2022-08-19T04:29:22.786Z,7.77
2022-08-19T04:31:50.776Z,8.00
2022-08-19T04:34:23.187Z,7.90
2022-08-19T04:36:53.057Z,7.20
2022-08-19T04:39:24.049Z,7.83
2022-08-19T04:42:10.024Z,7.63
2022-08-19T04:44:39.860Z,7.50
2022-08-19T04:47:14.345Z,7.50
2022-08-19T04:49:42.766Z,7.30
2022-08-19T04:52:10.191Z,7.10
2022-08-19T04:54:39.421Z,7.77
2022-08-19T04:57:10.998Z,7.93
2022-08-19T04:59:39.976Z,7.13
2022-08-19T05:02:09.791Z,8.10
2022-08-19T05:04:39.964Z,7.20
2022-08-19T05:07:08.582Z,7.40
2022-08-19T05:09:58.089Z,7.77
2022-08-19T05:12:28.951Z,7.57
2022-08-19T05:14:58.468Z,7.43
2022-08-19T05:17:30.274Z,6.87
2022-08-19T05:20:19.853Z,8.17
2022-08-19T05:22:48.655Z,7.50
2022-08-19T05:25:20.791Z,7.13
2022-08-19T05:27:49.247Z,7.73
2022-08-19T05:30:17.378Z,7.17
2022-08-19T05:32:44.961Z,7.07
2022-08-19T05:35:12.851Z,7.57
2022-08-19T05:37:43.818Z,7.43
2022-08-19T05:40:11.803Z,6.83
2022-08-19T05:42:39.367Z,7.53
2022-08-19T05:45:12.174Z,7.87
2022-08-19T05:47:42.290Z,7.10
2022-08-19T05:50:10.042Z,6.53
2022-08-19T05:52:54.344Z,6.83
2022-08-19T05:55:21.865Z,6.80
2022-08-19T05:57:50.029Z,7.03
2022-08-19T06:00:20.429Z,6.77
2022-08-19T06:02:52.273Z,7.13
2022-08-19T06:05:21.019Z,6.33
2022-08-19T06:07:48.567Z,6.77
2022-08-19T06:10:15.985Z,6.70
2022-08-19T06:12:43.300Z,6.80
2022-08-19T06:15:12.925Z,6.97
2022-08-19T06:17:41.646Z,5.60
2022-08-19T06:20:14.473Z,5.50
2022-08-19T06:22:45.538Z,6.20
2022-08-19T06:25:15.088Z,6.07
2022-08-19T06:30:31.101Z,6.80
2022-08-19T06:32:58.509Z,7.73
2022-08-19T06:35:26.310Z,6.43
2022-08-19T06:37:54.605Z,7.40
2022-08-19T06:40:22.333Z,6.23
2022-08-19T06:42:54.279Z,6.90
2022-08-19T06:45:25.074Z,7.40
2022-08-19T06:48:02.325Z,6.40
2022-08-19T06:50:30.732Z,7.00
2022-08-19T06:52:58.235Z,6.47
2022-08-19T06:55:33.312Z,7.00
2022-08-19T06:58:04.687Z,6.90
2022-08-19T07:00:33.295Z,7.27
2022-08-19T07:03:04.559Z,6.00
2022-08-19T07:05:40.746Z,6.67
2022-08-19T07:08:14.145Z,5.93
2022-08-19T07:10:45.701Z,6.73
2022-08-19T07:13:13.511Z,7.23
2022-08-19T07:15:41.056Z,6.70
2022-08-19T07:18:11.646Z,7.03
2022-08-19T07:20:42.042Z,7.50
2022-08-19T07:23:15.761Z,6.97
2022-08-19T07:25:44.613Z,7.17
2022-08-19T07:28:22.404Z,6.27
2022-08-19T07:30:53.105Z,8.20
2022-08-19T07:33:21.628Z,7.93
2022-08-19T07:35:50.652Z,7.80
2022-08-19T07:38:18.366Z,8.20
2022-08-19T07:40:47.149Z,8.00
2022-08-19T07:43:17.325Z,8.30
2022-08-19T07:45:46.267Z,6.97
2022-08-19T07:48:16.019Z,8.43
2022-08-19T07:50:43.593Z,9.07
2022-08-19T07:53:12.757Z,8.37
2022-08-19T07:55:43.581Z,8.27
2022-08-19T07:58:14.164Z,8.13
2022-08-19T08:00:43.328Z,9.10
2022-08-19T08:03:15.191Z,8.77
2022-08-19T08:06:01.884Z,9.30
2022-08-19T08:08:48.559Z,7.83
2022-08-19T08:11:21.929Z,8.80
2022-08-19T08:14:01.380Z,8.70
2022-08-19T08:16:47.170Z,8.37
2022-08-19T08:19:20.722Z,9.10
2022-08-19T08:21:56.020Z,8.40
2022-08-19T08:24:28.588Z,7.87
2022-08-19T08:26:57.623Z,8.20
2022-08-19T08:29:26.710Z,7.70
2022-08-19T08:32:02.890Z,8.90
2022-08-19T08:34:30.246Z,8.57
2022-08-19T08:36:57.609Z,6.73
2022-08-19T08:39:24.917Z,9.10
2022-08-19T08:42:25.297Z,7.20
2022-08-19T08:45:00.810Z,7.80
2022-08-19T08:47:35.698Z,8.53
2022-08-19T08:50:13.579Z,8.07
2022-08-19T08:52:46.517Z,8.30
2022-08-19T08:55:20.357Z,8.33
2022-08-19T08:57:55.794Z,8.33
2022-08-19T09:00:30.364Z,7.70
2022-08-19T09:02:59.362Z,6.83
2022-08-19T09:05:48.631Z,7.40
2022-08-19T09:08:37.046Z,7.53
2022-08-19T09:11:13.855Z,7.80
2022-08-19T09:14:49.195Z,7.70
2022-08-19T09:17:15.239Z,7.43
2022-08-19T09:20:09.480Z,7.33
2022-08-19T09:22:39.431Z,7.37
2022-08-19T09:25:09.793Z,7.80
2022-08-19T09:27:43.144Z,7.27
2022-08-19T09:30:26.341Z,8.17
2022-08-19T09:32:54.565Z,6.80
2022-08-19T09:35:24.359Z,6.90
2022-08-19T09:37:57.725Z,6.87
2022-08-19T09:40:30.218Z,7.13
2022-08-19T09:43:03.416Z,8.00
2022-08-19T09:45:37.573Z,7.90
2022-08-19T09:48:05.781Z,7.57
2022-08-19T09:50:35.934Z,9.60
2022-08-19T09:53:03.319Z,7.57
2022-08-19T09:55:34.302Z,8.07
2022-08-19T09:58:03.278Z,8.77
2022-08-19T10:00:32.336Z,8.30
2022-08-19T10:02:59.897Z,8.37
2022-08-19T10:05:48.581Z,8.87
2022-08-19T10:08:20.637Z,9.00
2022-08-19T10:10:49.854Z,9.20
2022-08-19T10:13:22.858Z,10.13
2022-08-19T10:15:53.557Z,9.57
2022-08-19T10:18:24.451Z,8.37
2022-08-19T10:20:54.530Z,8.90
2022-08-19T10:23:22.523Z,8.80
2022-08-19T10:25:50.684Z,8.97
2022-08-19T10:28:19.295Z,9.07
2022-08-19T10:30:48.842Z,9.30
2022-08-19T10:33:38.784Z,9.47
2022-08-19T10:36:10.623Z,9.07
2022-08-19T10:38:38.825Z,9.77
2022-08-19T10:41:18.207Z,9.77
2022-08-19T10:43:46.807Z,8.40
2022-08-19T10:46:16.677Z,10.63
2022-08-19T10:48:45.422Z,10.00
2022-08-19T10:51:32.234Z,9.33
2022-08-19T10:54:01.080Z,7.90
2022-08-19T10:56:48.529Z,8.20
2022-08-19T10:59:16.770Z,8.20
2022-08-19T11:01:46.747Z,7.40
2022-08-19T11:04:16.718Z,8.77
2022-08-19T11:06:48.310Z,8.83
2022-08-19T11:09:33.133Z,9.30
2022-08-19T11:12:02.759Z,7.70
2022-08-19T11:14:34.733Z,9.30
2022-08-19T11:17:04.356Z,8.67
2022-08-19T11:19:32.697Z,8.20
2022-08-19T11:22:02.307Z,9.07
2022-08-19T11:24:31.986Z,9.13
2022-08-19T11:27:07.160Z,8.53
2022-08-19T11:29:35.701Z,9.00
2022-08-19T11:32:09.795Z,9.70
2022-08-19T11:34:37.994Z,9.40
2022-08-19T11:37:06.721Z,8.27
2022-08-19T11:39:37.291Z,8.80
2022-08-19T11:42:26.983Z,9.07
2022-08-19T11:44:58.963Z,10.63
2022-08-19T11:47:27.182Z,10.00
2022-08-19T11:49:54.626Z,8.63
2022-08-19T11:52:21.984Z,8.57
2022-08-19T11:54:49.946Z,8.73
2022-08-19T11:57:17.967Z,7.67
2022-08-19T11:59:50.305Z,8.60
2022-08-19T12:02:18.135Z,9.63
2022-08-19T12:04:46.235Z,9.33
2022-08-19T12:07:13.558Z,10.27
2022-08-19T12:09:42.746Z,7.90
2022-08-19T12:12:10.615Z,8.27
2022-08-19T12:14:38.179Z,8.17
2022-08-19T12:17:08.275Z,7.60
2022-08-19T12:19:38.055Z,8.90
2022-08-19T12:22:06.958Z,8.00
2022-08-19T12:24:35.193Z,7.27
2022-08-19T12:27:03.128Z,8.13
2022-08-19T12:29:31.217Z,8.30
2022-08-19T12:32:02.198Z,7.90
2022-08-19T12:34:32.718Z,8.30
2022-08-19T12:37:03.786Z,7.93
2022-08-19T12:39:34.523Z,7.90
2022-08-19T12:42:02.397Z,7.60
2022-08-19T12:44:32.135Z,8.70
2022-08-19T12:47:01.285Z,7.67
2022-08-19T12:49:53.458Z,8.07
2022-08-19T12:52:23.538Z,8.07
2022-08-19T12:54:54.312Z,8.37
2022-08-19T12:57:33.233Z,7.30
2022-08-19T13:00:14.603Z,8.10
2022-08-19T13:02:45.524Z,7.87
2022-08-19T13:05:17.406Z,7.47
2022-08-19T13:07:44.882Z,7.33
2022-08-19T13:10:18.546Z,7.50
2022-08-19T13:12:48.374Z,6.87
2022-08-19T13:15:23.842Z,6.83
2022-08-19T13:17:53.822Z,6.13
2022-08-19T13:20:22.363Z,5.93
2022-08-19T13:22:49.988Z,6.70
2022-08-19T13:25:21.024Z,7.03
2022-08-19T13:27:50.464Z,6.37
2022-08-19T13:30:39.210Z,7.20
2022-08-19T13:33:16.053Z,7.20
2022-08-19T13:35:57.975Z,7.20
2022-08-19T13:38:25.909Z,6.80
2022-08-19T13:40:54.750Z,6.80
2022-08-19T13:43:24.545Z,7.27
2022-08-19T13:45:56.763Z,6.83
2022-08-19T13:48:27.735Z,6.40
2022-08-19T13:50:55.771Z,5.90
2022-08-19T13:53:23.530Z,6.27
2022-08-19T13:55:52.065Z,6.30
2022-08-19T13:58:19.473Z,6.20
2022-08-19T14:00:47.551Z,7.47
2022-08-19T14:03:15.593Z,6.63
2022-08-19T14:05:43.713Z,6.30
2022-08-19T14:08:11.076Z,7.17
2022-08-19T14:10:38.474Z,6.77
2022-08-19T14:13:05.974Z,6.70
2022-08-19T14:15:33.805Z,6.80
2022-08-19T14:18:01.934Z,6.83
2022-08-19T14:20:29.734Z,7.37
2022-08-19T14:22:57.084Z,7.37
2022-08-19T14:25:28.657Z,7.70
2022-08-19T14:27:57.543Z,6.20
2022-08-19T14:30:33.581Z,7.07
2022-08-19T14:33:03.024Z,6.00
2022-08-19T14:35:34.836Z,6.67
2022-08-19T14:38:05.757Z,6.20
2022-08-19T14:40:34.363Z,5.20
2022-08-19T14:43:05.103Z,5.00
2022-08-19T14:45:35.399Z,7.00
2022-08-19T14:48:18.887Z,5.70
2022-08-19T14:50:46.925Z,6.30
2022-08-19T14:53:14.322Z,6.00
2022-08-19T14:55:43.697Z,5.73
2022-08-19T14:58:28.977Z,6.40
2022-08-19T15:01:01.670Z,5.73
2022-08-19T15:03:30.055Z,6.23
2022-08-19T15:06:01.460Z,6.50
2022-08-19T15:08:30.376Z,6.60
2022-08-19T15:10:58.743Z,7.00
2022-08-19T15:13:28.738Z,6.20
2022-08-19T15:15:58.003Z,5.20
2022-08-19T15:18:25.886Z,5.20
2022-08-19T15:20:53.359Z,4.70
2022-08-19T15:23:22.183Z,5.57
2022-08-19T15:25:54.312Z,5.30
2022-08-19T15:28:26.419Z,5.33
2022-08-19T15:30:53.847Z,5.73
2022-08-19T15:33:21.248Z,5.10
2022-08-19T15:35:54.142Z,5.40
2022-08-19T15:38:22.233Z,5.30
2022-08-19T15:40:50.778Z,5.50
2022-08-19T15:43:22.120Z,5.00
2022-08-19T15:45:49.699Z,5.20
2022-08-19T15:48:17.838Z,5.50
2022-08-19T15:50:45.393Z,5.40
2022-08-19T15:53:13.285Z,5.40
2022-08-19T15:55:46.108Z,5.43
2022-08-19T15:58:33.650Z,4.60
2022-08-19T16:01:24.192Z,5.40
2022-08-19T16:04:15.035Z,4.30
2022-08-19T16:06:52.156Z,4.20
2022-08-19T16:09:27.062Z,4.97
2022-08-19T16:12:02.375Z,4.93
2022-08-19T16:14:32.770Z,5.53
2022-08-19T16:17:00.430Z,5.37
2022-08-19T16:19:27.997Z,4.93
2022-08-19T16:21:56.859Z,5.60
2022-08-19T16:24:26.683Z,5.20
2022-08-19T16:26:54.900Z,4.77
2022-08-19T16:29:34.518Z,4.83
2022-08-19T16:32:10.311Z,4.63
2022-08-19T16:34:40.526Z,5.40
2022-08-19T16:37:08.341Z,5.23
2022-08-19T16:39:35.979Z,4.20
2022-08-19T16:42:05.227Z,3.87
2022-08-19T16:44:36.460Z,4.53
2022-08-19T16:47:04.198Z,4.90
2022-08-19T16:49:53.051Z,3.83
2022-08-19T16:52:26.889Z,4.47
2022-08-19T16:54:54.971Z,4.80
2022-08-19T16:57:23.942Z,4.80
2022-08-19T16:59:52.351Z,6.30
2022-08-19T17:02:23.288Z,5.73
2022-08-19T17:04:57.703Z,5.90
2022-08-19T17:07:33.632Z,6.03
2022-08-19T17:10:04.490Z,4.53
2022-08-19T17:12:32.666Z,4.10
2022-08-19T17:15:01.502Z,4.50
2022-08-19T17:17:31.575Z,4.23
2022-08-19T17:20:00.529Z,3.93
2022-08-19T17:22:28.860Z,5.27
2022-08-19T17:24:58.295Z,6.20
2022-08-19T17:27:31.378Z,5.43
2022-08-19T17:30:01.109Z,3.80
2022-08-19T17:32:28.569Z,3.70
2022-08-19T17:34:56.043Z,4.00
2022-08-19T17:37:23.407Z,3.70
2022-08-19T17:39:51.363Z,4.00
2022-08-19T17:42:19.370Z,3.33
2022-08-19T17:44:50.372Z,3.87
2022-08-19T17:47:21.056Z,3.50
2022-08-19T17:49:48.757Z,5.33
2022-08-19T17:52:16.548Z,4.37
2022-08-19T17:54:44.697Z,7.30
2022-08-19T17:57:12.344Z,4.37
2022-08-19T17:59:40.371Z,4.60
2022-08-19T18:02:10.298Z,4.73
2022-08-19T18:04:39.095Z,7.67
2022-08-19T18:07:06.691Z,8.70
2022-08-19T18:09:42.188Z,4.90
2022-08-19T18:12:12.729Z,5.53
2022-08-19T18:14:41.977Z,6.17
2022-08-19T18:17:12.726Z,6.37
2022-08-19T18:19:43.396Z,8.20
2022-08-19T18:22:36.780Z,11.10
2022-08-19T18:25:11.034Z,6.67
2022-08-19T18:27:39.467Z,5.50
2022-08-19T18:30:08.113Z,5.50
2022-08-19T18:32:39.234Z,7.07
2022-08-19T18:35:11.201Z,7.27
2022-08-19T18:37:40.253Z,7.37
2022-08-19T18:40:29.613Z,5.70
2022-08-19T18:43:15.602Z,6.20
2022-08-19T18:46:02.524Z,5.70
2022-08-19T18:48:48.903Z,6.00
2022-08-19T18:51:17.654Z,5.20
2022-08-19T18:53:48.434Z,6.10
2022-08-19T18:56:19.646Z,6.10
2022-08-19T18:58:47.021Z,5.87
2022-08-19T19:01:21.648Z,5.87
2022-08-19T19:03:53.838Z,6.20
2022-08-19T19:06:30.453Z,6.10
2022-08-19T19:08:58.014Z,6.60
2022-08-19T19:11:36.379Z,6.70
2022-08-19T19:14:10.321Z,6.17
2022-08-19T19:16:40.537Z,5.50
2022-08-19T19:19:08.754Z,6.90
2022-08-19T19:21:36.280Z,7.23
2022-08-19T19:24:04.447Z,6.70
2022-08-19T19:26:31.833Z,6.43
2022-08-19T19:29:00.298Z,8.20
2022-08-19T19:31:27.776Z,7.90
2022-08-19T19:33:56.332Z,8.80
2022-08-19T19:36:24.226Z,9.63
2022-08-19T19:38:52.030Z,8.60
2022-08-19T19:41:25.945Z,9.13
2022-08-19T19:44:16.451Z,9.33
2022-08-19T19:46:43.965Z,9.97
2022-08-19T19:49:11.876Z,9.87
2022-08-19T19:51:40.318Z,10.10
2022-08-19T19:54:13.621Z,10.57
2022-08-19T19:56:48.655Z,10.10
2022-08-19T19:59:17.364Z,9.40
2022-08-19T20:01:46.853Z,10.30
2022-08-19T20:04:16.569Z,9.50
2022-08-19T20:06:46.014Z,10.80
2022-08-19T20:09:19.918Z,11.53
2022-08-19T20:11:53.736Z,11.17
2022-08-19T20:14:24.539Z,9.80
2022-08-19T20:16:53.368Z,9.63
2022-08-19T20:19:23.768Z,9.50
2022-08-19T20:21:51.608Z,9.40
2022-08-19T20:24:23.290Z,8.90
2022-08-19T20:26:53.482Z,9.03
2022-08-19T20:29:39.225Z,10.00
2022-08-19T20:32:10.223Z,9.13
2022-08-19T20:34:39.189Z,8.53
2022-08-19T20:37:09.329Z,8.90
2022-08-19T20:39:37.748Z,6.70
2022-08-19T20:42:05.664Z,6.77
2022-08-19T20:44:33.020Z,7.03
2022-08-19T20:47:03.649Z,8.00
2022-08-19T20:49:32.801Z,8.80
2022-08-19T20:52:00.335Z,8.60
2022-08-19T20:54:28.289Z,8.60
2022-08-19T20:56:56.264Z,8.57
2022-08-19T20:59:23.716Z,9.47
2022-08-19T21:01:51.847Z,7.73
2022-08-19T21:04:21.285Z,8.67
2022-08-19T21:06:50.233Z,8.40
2022-08-19T21:09:17.675Z,6.87
2022-08-19T21:11:45.499Z,8.70
2022-08-19T21:14:13.558Z,8.83
2022-08-19T21:16:41.032Z,8.43
2022-08-19T21:19:08.643Z,8.10
2022-08-19T21:21:36.120Z,8.80
2022-08-19T21:24:04.385Z,9.30
2022-08-19T21:26:31.832Z,6.30
2022-08-19T21:28:59.249Z,6.70
2022-08-19T21:31:27.193Z,7.53
2022-08-19T21:33:54.637Z,6.40
2022-08-19T21:36:22.015Z,5.30
2022-08-19T21:38:49.730Z,3.90
2022-08-19T21:41:17.069Z,4.30
2022-08-19T21:43:44.483Z,4.83
2022-08-19T21:46:11.827Z,4.97
2022-08-19T21:48:39.186Z,5.53
2022-08-19T21:51:07.726Z,4.40
2022-08-19T21:53:37.020Z,5.63
2022-08-19T21:56:07.004Z,5.70
2022-08-19T21:58:36.471Z,5.47
2022-08-19T22:01:07.723Z,5.43
2022-08-19T22:03:37.752Z,5.80
2022-08-19T22:06:06.295Z,5.50
2022-08-19T22:08:33.690Z,6.30
2022-08-19T22:11:03.034Z,6.60
2022-08-19T22:13:39.788Z,5.50
2022-08-19T22:16:09.566Z,6.23
2022-08-19T22:18:37.269Z,5.90
2022-08-19T22:21:11.610Z,6.10
2022-08-19T22:23:44.374Z,6.27
2022-08-19T22:26:13.737Z,6.20
2022-08-19T22:28:42.226Z,5.07
2022-08-19T22:31:11.220Z,4.87
2022-08-19T22:33:39.053Z,5.60
2022-08-19T22:36:09.849Z,4.80
2022-08-19T22:38:38.284Z,4.67
2022-08-19T22:41:07.790Z,5.23
2022-08-19T22:43:37.387Z,4.23
2022-08-19T22:46:06.528Z,4.57
2022-08-19T22:48:47.151Z,4.80
2022-08-19T22:51:34.636Z,4.40
2022-08-19T22:54:02.857Z,4.63
2022-08-19T22:56:30.472Z,4.40
2022-08-19T22:58:58.203Z,4.60
2022-08-19T23:01:30.181Z,4.07
2022-08-19T23:03:59.603Z,4.40
2022-08-19T23:06:33.149Z,4.33
2022-08-19T23:09:05.156Z,5.00
2022-08-19T23:11:38.221Z,4.27
2022-08-19T23:14:11.183Z,3.80
2022-08-19T23:16:39.405Z,3.83
2022-08-19T23:19:10.045Z,4.33
2022-08-19T23:21:39.024Z,4.20
2022-08-19T23:24:06.873Z,4.10
2022-08-19T23:26:36.132Z,3.93
2022-08-19T23:29:23.397Z,3.73
2022-08-19T23:31:50.820Z,3.87
2022-08-19T23:34:18.290Z,3.43
2022-08-19T23:36:46.721Z,3.40
2022-08-19T23:39:14.100Z,3.40
2022-08-19T23:41:41.484Z,3.00
2022-08-19T23:44:14.457Z,3.37
2022-08-19T23:46:55.227Z,2.87
2022-08-19T23:49:25.492Z,3.30
2022-08-19T23:51:55.420Z,2.90
2022-08-19T23:54:34.329Z,3.00
2022-08-19T23:57:14.419Z,3.70
2022-08-19T23:59:45.314Z,2.87
